sensor_id;sensor_type;location;lat;lon;timestamp;P1;durP1;ratioP1;P2;durP2;ratioP2
3189;SDS011;1606;51.946;10.558;2023-04-24T00:02:21;6.13;;;1.10;;
3189;SDS011;1606;51.946;10.558;2023-04-24T00:04:49;5.33;;;1.37;;
3189;SDS011;1606;51.946;10.558;2023-04-24T00:07:17;7.50;;;1.53;;
3189;SDS011;1606;51.946;10.558;2023-04-24T00:09:46;5.40;;;1.30;;
3189;SDS011;1606;51.946;10.558;2023-04-24T00:12:13;5.23;;;1.20;;
3189;SDS011;1606;51.946;10.558;2023-04-24T00:14:42;7.20;;;1.73;;
3189;SDS011;1606;51.946;10.558;2023-04-24T00:17:10;5.30;;;1.23;;
3189;SDS011;1606;51.946;10.558;2023-04-24T00:19:38;5.50;;;1.30;;
3189;SDS011;1606;51.946;10.558;2023-04-24T00:22:06;5.93;;;1.30;;
3189;SDS011;1606;51.946;10.558;2023-04-24T00:24:34;5.70;;;1.57;;
3189;SDS011;1606;51.946;10.558;2023-04-24T00:27:02;5.60;;;1.40;;
3189;SDS011;1606;51.946;10.558;2023-04-24T00:29:30;5.70;;;1.50;;
3189;SDS011;1606;51.946;10.558;2023-04-24T00:31:59;6.57;;;1.60;;
3189;SDS011;1606;51.946;10.558;2023-04-24T00:34:27;5.93;;;1.53;;
3189;SDS011;1606;51.946;10.558;2023-04-24T00:36:55;9.07;;;1.33;;
3189;SDS011;1606;51.946;10.558;2023-04-24T00:39:22;5.37;;;1.40;;
3189;SDS011;1606;51.946;10.558;2023-04-24T00:41:50;5.43;;;1.40;;
3189;SDS011;1606;51.946;10.558;2023-04-24T00:44:19;5.40;;;1.50;;
3189;SDS011;1606;51.946;10.558;2023-04-24T00:46:47;6.20;;;1.60;;
3189;SDS011;1606;51.946;10.558;2023-04-24T00:49:19;5.53;;;1.50;;
3189;SDS011;1606;51.946;10.558;2023-04-24T00:51:47;5.30;;;1.10;;
3189;SDS011;1606;51.946;10.558;2023-04-24T00:54:17;6.90;;;1.47;;
3189;SDS011;1606;51.946;10.558;2023-04-24T00:56:45;5.20;;;1.20;;
3189;SDS011;1606;51.946;10.558;2023-04-24T00:59:13;5.30;;;1.00;;
3189;SDS011;1606;51.946;10.558;2023-04-24T01:01:43;6.10;;;1.20;;
3189;SDS011;1606;51.946;10.558;2023-04-24T01:04:12;6.50;;;1.80;;
3189;SDS011;1606;51.946;10.558;2023-04-24T01:06:43;5.13;;;1.33;;
3189;SDS011;1606;51.946;10.558;2023-04-24T01:09:12;5.47;;;1.37;;
3189;SDS011;1606;51.946;10.558;2023-04-24T01:11:40;8.50;;;1.50;;
3189;SDS011;1606;51.946;10.558;2023-04-24T01:14:09;5.80;;;1.20;;
3189;SDS011;1606;51.946;10.558;2023-04-24T01:16:36;7.03;;;1.30;;
3189;SDS011;1606;51.946;10.558;2023-04-24T01:19:05;8.70;;;1.60;;
3189;SDS011;1606;51.946;10.558;2023-04-24T01:21:34;5.53;;;1.30;;
3189;SDS011;1606;51.946;10.558;2023-04-24T01:24:05;6.50;;;1.40;;
3189;SDS011;1606;51.946;10.558;2023-04-24T01:26:33;6.00;;;1.37;;
3189;SDS011;1606;51.946;10.558;2023-04-24T01:29:01;5.43;;;1.40;;
3189;SDS011;1606;51.946;10.558;2023-04-24T01:31:29;5.93;;;1.20;;
3189;SDS011;1606;51.946;10.558;2023-04-24T01:33:58;6.33;;;1.70;;
3189;SDS011;1606;51.946;10.558;2023-04-24T01:36:26;5.30;;;1.30;;
3189;SDS011;1606;51.946;10.558;2023-04-24T01:38:55;5.77;;;1.43;;
3189;SDS011;1606;51.946;10.558;2023-04-24T01:41:24;6.07;;;1.37;;
3189;SDS011;1606;51.946;10.558;2023-04-24T01:43:52;8.03;;;1.63;;
3189;SDS011;1606;51.946;10.558;2023-04-24T01:46:21;5.13;;;1.20;;
3189;SDS011;1606;51.946;10.558;2023-04-24T01:48:49;6.63;;;1.47;;
3189;SDS011;1606;51.946;10.558;2023-04-24T01:51:18;5.85;;;1.35;;
3189;SDS011;1606;51.946;10.558;2023-04-24T01:53:46;5.83;;;1.43;;
3189;SDS011;1606;51.946;10.558;2023-04-24T01:56:14;5.90;;;1.40;;
3189;SDS011;1606;51.946;10.558;2023-04-24T01:58:43;6.73;;;1.30;;
3189;SDS011;1606;51.946;10.558;2023-04-24T02:01:14;7.33;;;1.40;;
3189;SDS011;1606;51.946;10.558;2023-04-24T02:03:44;8.40;;;1.50;;
3189;SDS011;1606;51.946;10.558;2023-04-24T02:06:12;6.50;;;1.70;;
3189;SDS011;1606;51.946;10.558;2023-04-24T02:08:40;5.83;;;1.40;;
3189;SDS011;1606;51.946;10.558;2023-04-24T02:11:08;5.13;;;1.23;;
3189;SDS011;1606;51.946;10.558;2023-04-24T02:13:36;6.33;;;1.40;;
3189;SDS011;1606;51.946;10.558;2023-04-24T02:16:05;5.30;;;1.27;;
3189;SDS011;1606;51.946;10.558;2023-04-24T02:18:33;5.20;;;0.90;;
3189;SDS011;1606;51.946;10.558;2023-04-24T02:21:01;5.90;;;1.40;;
3189;SDS011;1606;51.946;10.558;2023-04-24T02:23:29;5.30;;;1.00;;
3189;SDS011;1606;51.946;10.558;2023-04-24T02:25:56;4.90;;;0.97;;
3189;SDS011;1606;51.946;10.558;2023-04-24T02:28:24;6.77;;;1.50;;
3189;SDS011;1606;51.946;10.558;2023-04-24T02:30:52;5.57;;;1.43;;
3189;SDS011;1606;51.946;10.558;2023-04-24T02:33:21;7.67;;;1.47;;
3189;SDS011;1606;51.946;10.558;2023-04-24T02:35:49;5.50;;;1.47;;
3189;SDS011;1606;51.946;10.558;2023-04-24T02:38:16;6.03;;;1.33;;
3189;SDS011;1606;51.946;10.558;2023-04-24T02:40:44;5.40;;;1.13;;
3189;SDS011;1606;51.946;10.558;2023-04-24T02:43:12;6.20;;;0.90;;
3189;SDS011;1606;51.946;10.558;2023-04-24T02:45:39;6.50;;;1.00;;
3189;SDS011;1606;51.946;10.558;2023-04-24T02:48:07;4.90;;;1.03;;
3189;SDS011;1606;51.946;10.558;2023-04-24T02:50:36;5.10;;;1.20;;
3189;SDS011;1606;51.946;10.558;2023-04-24T02:53:04;4.83;;;0.90;;
3189;SDS011;1606;51.946;10.558;2023-04-24T02:55:32;5.23;;;1.30;;
3189;SDS011;1606;51.946;10.558;2023-04-24T02:58:00;6.10;;;1.03;;
3189;SDS011;1606;51.946;10.558;2023-04-24T03:00:27;5.60;;;1.30;;
3189;SDS011;1606;51.946;10.558;2023-04-24T03:02:55;5.40;;;1.20;;
3189;SDS011;1606;51.946;10.558;2023-04-24T03:05:24;6.57;;;1.30;;
3189;SDS011;1606;51.946;10.558;2023-04-24T03:07:53;5.60;;;1.10;;
3189;SDS011;1606;51.946;10.558;2023-04-24T03:10:20;6.33;;;1.13;;
3189;SDS011;1606;51.946;10.558;2023-04-24T03:12:49;5.90;;;1.50;;
3189;SDS011;1606;51.946;10.558;2023-04-24T03:15:17;5.80;;;1.20;;
3189;SDS011;1606;51.946;10.558;2023-04-24T03:17:45;5.70;;;1.30;;
3189;SDS011;1606;51.946;10.558;2023-04-24T03:20:13;5.50;;;1.17;;
3189;SDS011;1606;51.946;10.558;2023-04-24T03:22:40;5.47;;;1.13;;
3189;SDS011;1606;51.946;10.558;2023-04-24T03:25:10;5.60;;;1.10;;
3189;SDS011;1606;51.946;10.558;2023-04-24T03:27:37;5.40;;;1.30;;
3189;SDS011;1606;51.946;10.558;2023-04-24T03:30:06;6.47;;;1.30;;
3189;SDS011;1606;51.946;10.558;2023-04-24T03:32:35;6.30;;;0.90;;
3189;SDS011;1606;51.946;10.558;2023-04-24T03:35:02;5.73;;;1.30;;
3189;SDS011;1606;51.946;10.558;2023-04-24T03:37:31;6.07;;;1.00;;
3189;SDS011;1606;51.946;10.558;2023-04-24T03:39:58;5.43;;;1.57;;
3189;SDS011;1606;51.946;10.558;2023-04-24T03:42:27;5.67;;;1.27;;
3189;SDS011;1606;51.946;10.558;2023-04-24T03:44:55;5.20;;;1.00;;
3189;SDS011;1606;51.946;10.558;2023-04-24T03:47:23;5.27;;;1.13;;
3189;SDS011;1606;51.946;10.558;2023-04-24T03:49:51;6.77;;;0.90;;
3189;SDS011;1606;51.946;10.558;2023-04-24T03:52:20;6.07;;;1.00;;
3189;SDS011;1606;51.946;10.558;2023-04-24T03:54:48;5.50;;;1.00;;
3189;SDS011;1606;51.946;10.558;2023-04-24T03:57:15;8.87;;;1.20;;
3189;SDS011;1606;51.946;10.558;2023-04-24T03:59:44;4.83;;;0.93;;
3189;SDS011;1606;51.946;10.558;2023-04-24T04:02:12;5.80;;;1.00;;
3189;SDS011;1606;51.946;10.558;2023-04-24T04:04:40;5.63;;;1.23;;
3189;SDS011;1606;51.946;10.558;2023-04-24T04:07:08;5.00;;;1.00;;
3189;SDS011;1606;51.946;10.558;2023-04-24T04:09:37;5.17;;;1.20;;
3189;SDS011;1606;51.946;10.558;2023-04-24T04:12:05;5.60;;;1.40;;
3189;SDS011;1606;51.946;10.558;2023-04-24T04:14:32;6.43;;;1.10;;
3189;SDS011;1606;51.946;10.558;2023-04-24T04:17:01;5.53;;;1.10;;
3189;SDS011;1606;51.946;10.558;2023-04-24T04:19:29;5.00;;;1.10;;
3189;SDS011;1606;51.946;10.558;2023-04-24T04:21:57;5.50;;;1.20;;
3189;SDS011;1606;51.946;10.558;2023-04-24T04:24:25;5.97;;;1.40;;
3189;SDS011;1606;51.946;10.558;2023-04-24T04:26:52;6.93;;;1.23;;
3189;SDS011;1606;51.946;10.558;2023-04-24T04:29:22;5.53;;;1.17;;
3189;SDS011;1606;51.946;10.558;2023-04-24T04:31:50;5.10;;;1.00;;
3189;SDS011;1606;51.946;10.558;2023-04-24T04:34:20;6.50;;;1.70;;
3189;SDS011;1606;51.946;10.558;2023-04-24T04:36:48;5.63;;;1.50;;
3189;SDS011;1606;51.946;10.558;2023-04-24T04:39:16;5.60;;;1.27;;
3189;SDS011;1606;51.946;10.558;2023-04-24T04:41:44;6.40;;;1.47;;
3189;SDS011;1606;51.946;10.558;2023-04-24T04:44:15;6.10;;;1.50;;
3189;SDS011;1606;51.946;10.558;2023-04-24T04:46:42;5.50;;;1.60;;
3189;SDS011;1606;51.946;10.558;2023-04-24T04:49:10;6.43;;;1.60;;
3189;SDS011;1606;51.946;10.558;2023-04-24T04:51:40;5.90;;;1.37;;
3189;SDS011;1606;51.946;10.558;2023-04-24T04:54:08;5.23;;;1.17;;
3189;SDS011;1606;51.946;10.558;2023-04-24T04:56:36;8.07;;;1.87;;
3189;SDS011;1606;51.946;10.558;2023-04-24T04:59:04;7.00;;;2.00;;
3189;SDS011;1606;51.946;10.558;2023-04-24T05:01:32;6.27;;;1.47;;
3189;SDS011;1606;51.946;10.558;2023-04-24T05:04:00;5.40;;;1.30;;
3189;SDS011;1606;51.946;10.558;2023-04-24T05:06:28;6.23;;;1.60;;
3189;SDS011;1606;51.946;10.558;2023-04-24T05:08:58;7.87;;;1.70;;
3189;SDS011;1606;51.946;10.558;2023-04-24T05:11:26;5.70;;;1.60;;
3189;SDS011;1606;51.946;10.558;2023-04-24T05:13:53;5.30;;;1.50;;
3189;SDS011;1606;51.946;10.558;2023-04-24T05:16:21;10.57;;;1.90;;
3189;SDS011;1606;51.946;10.558;2023-04-24T05:18:49;6.27;;;1.80;;
3189;SDS011;1606;51.946;10.558;2023-04-24T05:21:17;6.37;;;1.67;;
3189;SDS011;1606;51.946;10.558;2023-04-24T05:23:44;6.60;;;1.60;;
3189;SDS011;1606;51.946;10.558;2023-04-24T05:26:14;5.20;;;1.07;;
3189;SDS011;1606;51.946;10.558;2023-04-24T05:28:42;8.03;;;1.47;;
3189;SDS011;1606;51.946;10.558;2023-04-24T05:31:10;5.70;;;1.50;;
3189;SDS011;1606;51.946;10.558;2023-04-24T05:33:38;7.07;;;1.83;;
3189;SDS011;1606;51.946;10.558;2023-04-24T05:36:06;5.50;;;1.40;;
3189;SDS011;1606;51.946;10.558;2023-04-24T05:38:34;5.80;;;1.50;;
3189;SDS011;1606;51.946;10.558;2023-04-24T05:41:02;5.80;;;1.40;;
3189;SDS011;1606;51.946;10.558;2023-04-24T05:43:31;6.77;;;2.80;;
3189;SDS011;1606;51.946;10.558;2023-04-24T05:45:59;6.77;;;1.97;;
3189;SDS011;1606;51.946;10.558;2023-04-24T05:48:27;7.33;;;1.30;;
3189;SDS011;1606;51.946;10.558;2023-04-24T05:50:55;10.33;;;2.20;;
3189;SDS011;1606;51.946;10.558;2023-04-24T05:53:22;6.17;;;1.50;;
3189;SDS011;1606;51.946;10.558;2023-04-24T05:55:50;5.13;;;1.37;;
3189;SDS011;1606;51.946;10.558;2023-04-24T05:58:18;6.20;;;1.57;;
3189;SDS011;1606;51.946;10.558;2023-04-24T06:00:47;5.10;;;1.13;;
3189;SDS011;1606;51.946;10.558;2023-04-24T06:03:15;5.60;;;1.10;;
3189;SDS011;1606;51.946;10.558;2023-04-24T06:05:43;7.03;;;1.47;;
3189;SDS011;1606;51.946;10.558;2023-04-24T06:08:11;6.20;;;1.83;;
3189;SDS011;1606;51.946;10.558;2023-04-24T06:10:39;5.70;;;1.40;;
3189;SDS011;1606;51.946;10.558;2023-04-24T06:13:07;6.37;;;1.10;;
3189;SDS011;1606;51.946;10.558;2023-04-24T06:15:35;4.93;;;1.13;;
3189;SDS011;1606;51.946;10.558;2023-04-24T06:18:04;5.70;;;1.37;;
3189;SDS011;1606;51.946;10.558;2023-04-24T06:20:32;6.27;;;1.20;;
3189;SDS011;1606;51.946;10.558;2023-04-24T06:23:00;7.03;;;1.40;;
3189;SDS011;1606;51.946;10.558;2023-04-24T06:25:27;5.20;;;1.33;;
3189;SDS011;1606;51.946;10.558;2023-04-24T06:27:55;6.23;;;1.40;;
3189;SDS011;1606;51.946;10.558;2023-04-24T06:30:23;6.40;;;1.77;;
3189;SDS011;1606;51.946;10.558;2023-04-24T06:32:51;6.73;;;1.53;;
3189;SDS011;1606;51.946;10.558;2023-04-24T06:35:22;4.97;;;1.17;;
3189;SDS011;1606;51.946;10.558;2023-04-24T06:37:50;5.20;;;1.20;;
3189;SDS011;1606;51.946;10.558;2023-04-24T06:40:18;7.97;;;2.03;;
3189;SDS011;1606;51.946;10.558;2023-04-24T06:42:46;8.30;;;1.47;;
3189;SDS011;1606;51.946;10.558;2023-04-24T06:45:13;5.20;;;1.40;;
3189;SDS011;1606;51.946;10.558;2023-04-24T06:47:41;5.80;;;1.40;;
3189;SDS011;1606;51.946;10.558;2023-04-24T06:50:09;6.63;;;1.10;;
3189;SDS011;1606;51.946;10.558;2023-04-24T06:52:39;6.60;;;1.13;;
3189;SDS011;1606;51.946;10.558;2023-04-24T06:55:07;5.20;;;1.20;;
3189;SDS011;1606;51.946;10.558;2023-04-24T06:57:37;6.17;;;1.00;;
3189;SDS011;1606;51.946;10.558;2023-04-24T07:00:05;5.83;;;1.33;;
3189;SDS011;1606;51.946;10.558;2023-04-24T07:02:35;5.10;;;1.17;;
3189;SDS011;1606;51.946;10.558;2023-04-24T07:05:04;5.00;;;1.17;;
3189;SDS011;1606;51.946;10.558;2023-04-24T07:07:32;5.20;;;1.30;;
3189;SDS011;1606;51.946;10.558;2023-04-24T07:10:02;6.63;;;1.20;;
3189;SDS011;1606;51.946;10.558;2023-04-24T07:12:30;7.63;;;1.37;;
3189;SDS011;1606;51.946;10.558;2023-04-24T07:14:58;6.27;;;1.47;;
3189;SDS011;1606;51.946;10.558;2023-04-24T07:17:26;5.07;;;1.20;;
3189;SDS011;1606;51.946;10.558;2023-04-24T07:19:54;5.80;;;1.27;;
3189;SDS011;1606;51.946;10.558;2023-04-24T07:22:21;5.30;;;1.47;;
3189;SDS011;1606;51.946;10.558;2023-04-24T07:24:49;5.27;;;1.53;;
3189;SDS011;1606;51.946;10.558;2023-04-24T07:27:18;5.70;;;1.80;;
3189;SDS011;1606;51.946;10.558;2023-04-24T07:29:46;5.50;;;1.33;;
3189;SDS011;1606;51.946;10.558;2023-04-24T07:32:14;6.67;;;1.70;;
3189;SDS011;1606;51.946;10.558;2023-04-24T07:34:42;6.77;;;1.37;;
3189;SDS011;1606;51.946;10.558;2023-04-24T07:37:09;5.10;;;1.27;;
3189;SDS011;1606;51.946;10.558;2023-04-24T07:39:37;6.20;;;1.33;;
3189;SDS011;1606;51.946;10.558;2023-04-24T07:42:05;5.10;;;1.10;;
3189;SDS011;1606;51.946;10.558;2023-04-24T07:44:34;6.00;;;1.70;;
3189;SDS011;1606;51.946;10.558;2023-04-24T07:47:02;5.90;;;1.50;;
3189;SDS011;1606;51.946;10.558;2023-04-24T07:49:30;5.57;;;1.60;;
3189;SDS011;1606;51.946;10.558;2023-04-24T07:52:00;5.40;;;1.40;;
3189;SDS011;1606;51.946;10.558;2023-04-24T07:54:28;5.80;;;1.53;;
3189;SDS011;1606;51.946;10.558;2023-04-24T07:56:56;6.10;;;1.87;;
3189;SDS011;1606;51.946;10.558;2023-04-24T07:59:24;6.43;;;1.90;;
3189;SDS011;1606;51.946;10.558;2023-04-24T08:01:53;6.10;;;1.80;;
3189;SDS011;1606;51.946;10.558;2023-04-24T08:04:21;8.03;;;1.80;;
3189;SDS011;1606;51.946;10.558;2023-04-24T08:06:49;6.60;;;2.27;;
3189;SDS011;1606;51.946;10.558;2023-04-24T08:09:17;5.80;;;1.70;;
3189;SDS011;1606;51.946;10.558;2023-04-24T08:11:45;6.07;;;1.90;;
3189;SDS011;1606;51.946;10.558;2023-04-24T08:14:14;5.73;;;1.70;;
3189;SDS011;1606;51.946;10.558;2023-04-24T08:16:42;5.90;;;1.83;;
3189;SDS011;1606;51.946;10.558;2023-04-24T08:19:12;5.50;;;1.70;;
3189;SDS011;1606;51.946;10.558;2023-04-24T08:21:40;7.80;;;1.50;;
3189;SDS011;1606;51.946;10.558;2023-04-24T08:24:08;5.30;;;1.60;;
3189;SDS011;1606;51.946;10.558;2023-04-24T08:26:35;6.03;;;1.50;;
3189;SDS011;1606;51.946;10.558;2023-04-24T08:29:04;5.73;;;1.90;;
3189;SDS011;1606;51.946;10.558;2023-04-24T08:31:32;5.40;;;1.70;;
3189;SDS011;1606;51.946;10.558;2023-04-24T08:34:00;5.40;;;1.33;;
3189;SDS011;1606;51.946;10.558;2023-04-24T08:36:29;5.63;;;1.50;;
3189;SDS011;1606;51.946;10.558;2023-04-24T08:39:11;6.33;;;2.13;;
3189;SDS011;1606;51.946;10.558;2023-04-24T08:41:39;5.67;;;2.37;;
3189;SDS011;1606;51.946;10.558;2023-04-24T08:44:09;5.57;;;2.07;;
3189;SDS011;1606;51.946;10.558;2023-04-24T08:46:40;9.70;;;2.40;;
3189;SDS011;1606;51.946;10.558;2023-04-24T08:49:08;7.40;;;1.93;;
3189;SDS011;1606;51.946;10.558;2023-04-24T08:51:37;5.83;;;2.17;;
3189;SDS011;1606;51.946;10.558;2023-04-24T08:54:06;5.47;;;2.50;;
3189;SDS011;1606;51.946;10.558;2023-04-24T08:56:36;6.20;;;2.53;;
3189;SDS011;1606;51.946;10.558;2023-04-24T08:59:06;5.83;;;2.60;;
3189;SDS011;1606;51.946;10.558;2023-04-24T09:01:35;5.93;;;2.50;;
3189;SDS011;1606;51.946;10.558;2023-04-24T09:04:06;6.63;;;2.80;;
3189;SDS011;1606;51.946;10.558;2023-04-24T09:06:37;5.83;;;2.40;;
3189;SDS011;1606;51.946;10.558;2023-04-24T09:09:06;5.63;;;2.10;;
3189;SDS011;1606;51.946;10.558;2023-04-24T09:11:35;5.80;;;2.30;;
3189;SDS011;1606;51.946;10.558;2023-04-24T09:14:04;6.83;;;3.40;;
3189;SDS011;1606;51.946;10.558;2023-04-24T09:16:32;6.93;;;2.40;;
3189;SDS011;1606;51.946;10.558;2023-04-24T09:19:02;5.77;;;2.70;;
3189;SDS011;1606;51.946;10.558;2023-04-24T09:21:31;6.50;;;2.90;;
3189;SDS011;1606;51.946;10.558;2023-04-24T09:24:01;5.90;;;2.30;;
3189;SDS011;1606;51.946;10.558;2023-04-24T09:26:30;6.50;;;2.63;;
3189;SDS011;1606;51.946;10.558;2023-04-24T09:28:59;5.97;;;2.50;;
3189;SDS011;1606;51.946;10.558;2023-04-24T09:31:28;7.63;;;2.67;;
3189;SDS011;1606;51.946;10.558;2023-04-24T09:33:57;5.73;;;2.57;;
3189;SDS011;1606;51.946;10.558;2023-04-24T09:36:28;5.80;;;2.40;;
3189;SDS011;1606;51.946;10.558;2023-04-24T09:39:01;5.90;;;2.33;;
3189;SDS011;1606;51.946;10.558;2023-04-24T09:41:31;6.07;;;2.20;;
3189;SDS011;1606;51.946;10.558;2023-04-24T09:44:01;6.80;;;2.97;;
3189;SDS011;1606;51.946;10.558;2023-04-24T09:46:40;6.53;;;3.63;;
3189;SDS011;1606;51.946;10.558;2023-04-24T09:49:09;6.83;;;3.03;;
3189;SDS011;1606;51.946;10.558;2023-04-24T09:51:39;5.70;;;2.33;;
3189;SDS011;1606;51.946;10.558;2023-04-24T09:54:13;5.83;;;2.60;;
3189;SDS011;1606;51.946;10.558;2023-04-24T09:56:43;5.73;;;2.27;;
3189;SDS011;1606;51.946;10.558;2023-04-24T09:59:12;5.20;;;2.10;;
3189;SDS011;1606;51.946;10.558;2023-04-24T10:01:41;6.57;;;2.40;;
3189;SDS011;1606;51.946;10.558;2023-04-24T10:04:17;6.07;;;2.50;;
3189;SDS011;1606;51.946;10.558;2023-04-24T10:06:52;6.60;;;2.70;;
3189;SDS011;1606;51.946;10.558;2023-04-24T10:09:23;6.70;;;2.20;;
3189;SDS011;1606;51.946;10.558;2023-04-24T10:11:53;7.07;;;3.10;;
3189;SDS011;1606;51.946;10.558;2023-04-24T10:14:22;7.00;;;2.60;;
3189;SDS011;1606;51.946;10.558;2023-04-24T10:16:52;8.17;;;3.03;;
3189;SDS011;1606;51.946;10.558;2023-04-24T10:19:21;6.53;;;2.30;;
3189;SDS011;1606;51.946;10.558;2023-04-24T10:21:54;7.33;;;2.70;;
3189;SDS011;1606;51.946;10.558;2023-04-24T10:24:24;6.00;;;2.57;;
3189;SDS011;1606;51.946;10.558;2023-04-24T10:26:53;5.77;;;2.33;;
3189;SDS011;1606;51.946;10.558;2023-04-24T10:29:23;6.30;;;2.30;;
3189;SDS011;1606;51.946;10.558;2023-04-24T10:31:51;6.20;;;1.73;;
3189;SDS011;1606;51.946;10.558;2023-04-24T10:34:19;5.30;;;2.00;;
3189;SDS011;1606;51.946;10.558;2023-04-24T10:36:50;6.30;;;2.10;;
3189;SDS011;1606;51.946;10.558;2023-04-24T10:39:24;8.60;;;2.57;;
3189;SDS011;1606;51.946;10.558;2023-04-24T10:41:54;6.67;;;2.40;;
3189;SDS011;1606;51.946;10.558;2023-04-24T10:44:23;6.13;;;2.30;;
3189;SDS011;1606;51.946;10.558;2023-04-24T10:46:52;5.80;;;2.30;;
3189;SDS011;1606;51.946;10.558;2023-04-24T10:49:27;5.33;;;2.00;;
3189;SDS011;1606;51.946;10.558;2023-04-24T10:52:00;7.73;;;2.00;;
3189;SDS011;1606;51.946;10.558;2023-04-24T10:54:35;7.30;;;2.03;;
3189;SDS011;1606;51.946;10.558;2023-04-24T11:00:09;5.90;;;2.73;;
3189;SDS011;1606;51.946;10.558;2023-04-24T11:02:40;6.60;;;3.00;;
3189;SDS011;1606;51.946;10.558;2023-04-24T11:05:15;7.63;;;3.13;;
3189;SDS011;1606;51.946;10.558;2023-04-24T11:10:41;6.70;;;2.57;;
3189;SDS011;1606;51.946;10.558;2023-04-24T11:13:13;22.83;;;3.30;;
3189;SDS011;1606;51.946;10.558;2023-04-24T11:15:42;7.10;;;2.83;;
3189;SDS011;1606;51.946;10.558;2023-04-24T11:18:12;5.70;;;2.50;;
3189;SDS011;1606;51.946;10.558;2023-04-24T11:20:42;10.33;;;2.60;;
3189;SDS011;1606;51.946;10.558;2023-04-24T11:23:11;6.20;;;2.30;;
3189;SDS011;1606;51.946;10.558;2023-04-24T11:25:42;7.20;;;2.37;;
3189;SDS011;1606;51.946;10.558;2023-04-24T11:28:09;6.37;;;1.97;;
3189;SDS011;1606;51.946;10.558;2023-04-24T11:30:43;8.27;;;2.40;;
3189;SDS011;1606;51.946;10.558;2023-04-24T11:33:11;6.40;;;2.57;;
3189;SDS011;1606;51.946;10.558;2023-04-24T11:35:47;6.00;;;2.27;;
3189;SDS011;1606;51.946;10.558;2023-04-24T11:38:15;6.30;;;2.23;;
3189;SDS011;1606;51.946;10.558;2023-04-24T11:40:51;7.83;;;2.70;;
3189;SDS011;1606;51.946;10.558;2023-04-24T11:43:19;5.80;;;2.53;;
3189;SDS011;1606;51.946;10.558;2023-04-24T11:45:48;6.50;;;2.23;;
3189;SDS011;1606;51.946;10.558;2023-04-24T11:48:18;5.77;;;2.07;;
3189;SDS011;1606;51.946;10.558;2023-04-24T11:50:48;7.27;;;2.47;;
3189;SDS011;1606;51.946;10.558;2023-04-24T11:53:18;5.90;;;2.50;;
3189;SDS011;1606;51.946;10.558;2023-04-24T11:55:46;6.73;;;2.10;;
3189;SDS011;1606;51.946;10.558;2023-04-24T11:58:16;5.87;;;2.17;;
3189;SDS011;1606;51.946;10.558;2023-04-24T12:00:55;6.30;;;2.10;;
3189;SDS011;1606;51.946;10.558;2023-04-24T12:03:23;6.30;;;2.50;;
3189;SDS011;1606;51.946;10.558;2023-04-24T12:05:52;6.23;;;1.97;;
3189;SDS011;1606;51.946;10.558;2023-04-24T12:08:26;8.83;;;2.00;;
3189;SDS011;1606;51.946;10.558;2023-04-24T12:10:55;7.37;;;2.17;;
3189;SDS011;1606;51.946;10.558;2023-04-24T12:13:26;5.20;;;1.30;;
3189;SDS011;1606;51.946;10.558;2023-04-24T12:15:54;5.07;;;1.40;;
3189;SDS011;1606;51.946;10.558;2023-04-24T12:18:22;6.13;;;1.20;;
3189;SDS011;1606;51.946;10.558;2023-04-24T12:20:49;5.93;;;1.60;;
3189;SDS011;1606;51.946;10.558;2023-04-24T12:23:32;4.77;;;1.40;;
3189;SDS011;1606;51.946;10.558;2023-04-24T12:26:03;6.73;;;1.63;;
3189;SDS011;1606;51.946;10.558;2023-04-24T12:28:35;5.23;;;1.20;;
3189;SDS011;1606;51.946;10.558;2023-04-24T12:31:04;6.50;;;1.30;;
3189;SDS011;1606;51.946;10.558;2023-04-24T12:33:34;6.23;;;1.70;;
3189;SDS011;1606;51.946;10.558;2023-04-24T12:36:03;5.00;;;1.40;;
3189;SDS011;1606;51.946;10.558;2023-04-24T12:38:32;5.37;;;1.53;;
3189;SDS011;1606;51.946;10.558;2023-04-24T12:41:06;5.30;;;1.20;;
3189;SDS011;1606;51.946;10.558;2023-04-24T12:43:37;9.43;;;1.30;;
3189;SDS011;1606;51.946;10.558;2023-04-24T12:46:05;5.40;;;1.37;;
3189;SDS011;1606;51.946;10.558;2023-04-24T12:48:33;6.07;;;1.10;;
3189;SDS011;1606;51.946;10.558;2023-04-24T12:51:00;5.80;;;0.90;;
3189;SDS011;1606;51.946;10.558;2023-04-24T12:53:28;5.70;;;1.40;;
3189;SDS011;1606;51.946;10.558;2023-04-24T12:55:57;5.73;;;1.63;;
3189;SDS011;1606;51.946;10.558;2023-04-24T12:58:25;5.20;;;1.20;;
3189;SDS011;1606;51.946;10.558;2023-04-24T13:00:54;4.97;;;0.93;;
3189;SDS011;1606;51.946;10.558;2023-04-24T13:03:22;6.10;;;1.00;;
3189;SDS011;1606;51.946;10.558;2023-04-24T13:05:50;6.93;;;1.03;;
3189;SDS011;1606;51.946;10.558;2023-04-24T13:08:18;5.00;;;0.90;;
3189;SDS011;1606;51.946;10.558;2023-04-24T13:10:46;6.90;;;0.90;;
3189;SDS011;1606;51.946;10.558;2023-04-24T13:13:13;5.20;;;1.03;;
3189;SDS011;1606;51.946;10.558;2023-04-24T13:15:42;5.07;;;0.90;;
3189;SDS011;1606;51.946;10.558;2023-04-24T13:18:11;5.30;;;0.80;;
3189;SDS011;1606;51.946;10.558;2023-04-24T13:20:39;4.70;;;0.80;;
3189;SDS011;1606;51.946;10.558;2023-04-24T13:23:07;5.27;;;1.53;;
3189;SDS011;1606;51.946;10.558;2023-04-24T13:25:36;5.00;;;1.17;;
3189;SDS011;1606;51.946;10.558;2023-04-24T13:28:05;5.30;;;1.20;;
3189;SDS011;1606;51.946;10.558;2023-04-24T13:30:32;5.10;;;1.20;;
3189;SDS011;1606;51.946;10.558;2023-04-24T13:33:00;5.37;;;1.00;;
3189;SDS011;1606;51.946;10.558;2023-04-24T13:35:30;8.53;;;1.30;;
3189;SDS011;1606;51.946;10.558;2023-04-24T13:37:58;6.60;;;1.10;;
3189;SDS011;1606;51.946;10.558;2023-04-24T13:40:27;5.10;;;1.37;;
3189;SDS011;1606;51.946;10.558;2023-04-24T13:42:55;5.20;;;0.65;;
3189;SDS011;1606;51.946;10.558;2023-04-24T13:45:23;4.83;;;0.90;;
3189;SDS011;1606;51.946;10.558;2023-04-24T13:47:51;5.00;;;1.13;;
3189;SDS011;1606;51.946;10.558;2023-04-24T13:50:19;5.00;;;1.00;;
3189;SDS011;1606;51.946;10.558;2023-04-24T13:52:49;4.80;;;0.70;;
3189;SDS011;1606;51.946;10.558;2023-04-24T13:55:17;5.17;;;0.97;;
3189;SDS011;1606;51.946;10.558;2023-04-24T13:57:44;4.80;;;0.80;;
3189;SDS011;1606;51.946;10.558;2023-04-24T14:00:12;4.90;;;0.77;;
3189;SDS011;1606;51.946;10.558;2023-04-24T14:02:41;4.70;;;0.60;;
3189;SDS011;1606;51.946;10.558;2023-04-24T14:05:08;4.73;;;0.90;;
3189;SDS011;1606;51.946;10.558;2023-04-24T14:07:37;5.20;;;0.90;;
3189;SDS011;1606;51.946;10.558;2023-04-24T14:10:06;4.90;;;0.80;;
3189;SDS011;1606;51.946;10.558;2023-04-24T14:12:35;7.83;;;0.87;;
3189;SDS011;1606;51.946;10.558;2023-04-24T14:15:03;4.60;;;0.67;;
3189;SDS011;1606;51.946;10.558;2023-04-24T14:17:31;4.80;;;0.80;;
3189;SDS011;1606;51.946;10.558;2023-04-24T14:19:59;4.70;;;0.90;;
3189;SDS011;1606;51.946;10.558;2023-04-24T14:22:27;4.80;;;0.80;;
3189;SDS011;1606;51.946;10.558;2023-04-24T14:24:55;4.73;;;0.60;;
3189;SDS011;1606;51.946;10.558;2023-04-24T14:27:26;4.70;;;0.80;;
3189;SDS011;1606;51.946;10.558;2023-04-24T14:29:54;4.70;;;0.60;;
3189;SDS011;1606;51.946;10.558;2023-04-24T14:32:21;5.10;;;0.70;;
3189;SDS011;1606;51.946;10.558;2023-04-24T14:34:49;5.67;;;0.90;;
3189;SDS011;1606;51.946;10.558;2023-04-24T14:37:17;5.80;;;0.90;;
3189;SDS011;1606;51.946;10.558;2023-04-24T14:39:45;5.60;;;0.70;;
3189;SDS011;1606;51.946;10.558;2023-04-24T14:42:33;5.50;;;1.00;;
3189;SDS011;1606;51.946;10.558;2023-04-24T14:45:01;5.00;;;0.80;;
3189;SDS011;1606;51.946;10.558;2023-04-24T14:47:29;4.97;;;0.70;;
3189;SDS011;1606;51.946;10.558;2023-04-24T14:49:57;5.10;;;0.90;;
3189;SDS011;1606;51.946;10.558;2023-04-24T14:52:25;5.13;;;0.90;;
3189;SDS011;1606;51.946;10.558;2023-04-24T14:54:53;5.20;;;0.80;;
3189;SDS011;1606;51.946;10.558;2023-04-24T14:57:21;4.70;;;0.70;;
3189;SDS011;1606;51.946;10.558;2023-04-24T14:59:51;7.23;;;1.13;;
3189;SDS011;1606;51.946;10.558;2023-04-24T15:02:19;4.90;;;0.90;;
3189;SDS011;1606;51.946;10.558;2023-04-24T15:04:47;6.93;;;1.00;;
3189;SDS011;1606;51.946;10.558;2023-04-24T15:07:15;6.70;;;1.00;;
3189;SDS011;1606;51.946;10.558;2023-04-24T15:09:43;5.10;;;1.13;;
3189;SDS011;1606;51.946;10.558;2023-04-24T15:12:13;7.95;;;1.05;;
3189;SDS011;1606;51.946;10.558;2023-04-24T15:14:40;4.90;;;0.80;;
3189;SDS011;1606;51.946;10.558;2023-04-24T15:17:10;5.33;;;1.00;;